sensor_id;sensor_type;location;lat;lon;timestamp;P1;durP1;ratioP1;P2;durP2;ratioP2
52564;SDS011;38460;53.106;7.004;2023-11-19T00:02:23;43.13;;;21.40;;
52564;SDS011;38460;53.106;7.004;2023-11-19T00:04:49;43.40;;;21.02;;
52564;SDS011;38460;53.106;7.004;2023-11-19T00:07:15;47.80;;;21.55;;
52564;SDS011;38460;53.106;7.004;2023-11-19T00:09:41;48.17;;;22.77;;
52564;SDS011;38460;53.106;7.004;2023-11-19T00:12:08;53.17;;;24.92;;
52564;SDS011;38460;53.106;7.004;2023-11-19T00:14:34;53.53;;;25.77;;
52564;SDS011;38460;53.106;7.004;2023-11-19T00:17:00;49.85;;;26.85;;
52564;SDS011;38460;53.106;7.004;2023-11-19T00:19:26;55.03;;;24.65;;
52564;SDS011;38460;53.106;7.004;2023-11-19T00:21:51;48.47;;;24.65;;
52564;SDS011;38460;53.106;7.004;2023-11-19T00:24:17;56.05;;;23.10;;
52564;SDS011;38460;53.106;7.004;2023-11-19T00:26:43;55.00;;;23.20;;
52564;SDS011;38460;53.106;7.004;2023-11-19T00:29:09;50.08;;;24.17;;
52564;SDS011;38460;53.106;7.004;2023-11-19T00:31:35;57.97;;;24.40;;
52564;SDS011;38460;53.106;7.004;2023-11-19T00:34:01;47.50;;;23.30;;
52564;SDS011;38460;53.106;7.004;2023-11-19T00:36:27;53.00;;;22.30;;
52564;SDS011;38460;53.106;7.004;2023-11-19T00:38:53;59.17;;;23.92;;
52564;SDS011;38460;53.106;7.004;2023-11-19T00:41:19;51.65;;;23.35;;
52564;SDS011;38460;53.106;7.004;2023-11-19T00:43:45;54.47;;;22.40;;
52564;SDS011;38460;53.106;7.004;2023-11-19T00:46:11;45.65;;;21.02;;
52564;SDS011;38460;53.106;7.004;2023-11-19T00:48:38;43.63;;;20.55;;
52564;SDS011;38460;53.106;7.004;2023-11-19T00:51:04;44.05;;;20.13;;
52564;SDS011;38460;53.106;7.004;2023-11-19T00:53:31;44.65;;;20.75;;
52564;SDS011;38460;53.106;7.004;2023-11-19T00:56:00;44.42;;;20.63;;
52564;SDS011;38460;53.106;7.004;2023-11-19T00:58:25;45.53;;;21.92;;
52564;SDS011;38460;53.106;7.004;2023-11-19T01:00:52;40.80;;;20.80;;
52564;SDS011;38460;53.106;7.004;2023-11-19T01:03:17;41.35;;;20.60;;
52564;SDS011;38460;53.106;7.004;2023-11-19T01:05:43;41.72;;;21.85;;
52564;SDS011;38460;53.106;7.004;2023-11-19T01:08:09;44.88;;;21.60;;
52564;SDS011;38460;53.106;7.004;2023-11-19T01:10:38;39.95;;;21.58;;
52564;SDS011;38460;53.106;7.004;2023-11-19T01:13:04;44.47;;;21.23;;
52564;SDS011;38460;53.106;7.004;2023-11-19T01:15:33;46.08;;;21.60;;
52564;SDS011;38460;53.106;7.004;2023-11-19T01:17:59;48.15;;;23.30;;
52564;SDS011;38460;53.106;7.004;2023-11-19T01:20:30;48.97;;;23.05;;
52564;SDS011;38460;53.106;7.004;2023-11-19T01:22:55;44.10;;;23.65;;
52564;SDS011;38460;53.106;7.004;2023-11-19T01:25:21;47.67;;;23.42;;
52564;SDS011;38460;53.106;7.004;2023-11-19T01:27:47;51.80;;;25.05;;
52564;SDS011;38460;53.106;7.004;2023-11-19T01:30:13;51.40;;;25.73;;
52564;SDS011;38460;53.106;7.004;2023-11-19T01:32:39;51.80;;;24.65;;
52564;SDS011;38460;53.106;7.004;2023-11-19T01:35:05;52.55;;;24.42;;
52564;SDS011;38460;53.106;7.004;2023-11-19T01:37:31;52.47;;;22.48;;
52564;SDS011;38460;53.106;7.004;2023-11-19T01:39:57;43.03;;;19.00;;
52564;SDS011;38460;53.106;7.004;2023-11-19T01:42:23;53.58;;;20.15;;
52564;SDS011;38460;53.106;7.004;2023-11-19T01:44:58;38.50;;;16.27;;
52564;SDS011;38460;53.106;7.004;2023-11-19T01:47:28;47.28;;;18.67;;
52564;SDS011;38460;53.106;7.004;2023-11-19T01:49:56;46.45;;;15.35;;
52564;SDS011;38460;53.106;7.004;2023-11-19T01:52:22;44.60;;;17.08;;
52564;SDS011;38460;53.106;7.004;2023-11-19T01:54:48;38.53;;;16.52;;
52564;SDS011;38460;53.106;7.004;2023-11-19T01:57:15;46.00;;;16.35;;
52564;SDS011;38460;53.106;7.004;2023-11-19T01:59:41;46.10;;;15.63;;
52564;SDS011;38460;53.106;7.004;2023-11-19T02:02:07;34.42;;;14.38;;
52564;SDS011;38460;53.106;7.004;2023-11-19T02:04:33;35.85;;;13.23;;
52564;SDS011;38460;53.106;7.004;2023-11-19T02:07:00;33.17;;;12.75;;
52564;SDS011;38460;53.106;7.004;2023-11-19T02:09:26;32.17;;;13.07;;
52564;SDS011;38460;53.106;7.004;2023-11-19T02:11:52;38.47;;;12.63;;
52564;SDS011;38460;53.106;7.004;2023-11-19T02:14:19;33.45;;;11.18;;
52564;SDS011;38460;53.106;7.004;2023-11-19T02:16:50;44.63;;;12.27;;
52564;SDS011;38460;53.106;7.004;2023-11-19T02:19:19;33.42;;;10.98;;
52564;SDS011;38460;53.106;7.004;2023-11-19T02:21:45;40.65;;;11.80;;
52564;SDS011;38460;53.106;7.004;2023-11-19T02:24:11;27.70;;;9.00;;
52564;SDS011;38460;53.106;7.004;2023-11-19T02:26:39;26.83;;;9.60;;
52564;SDS011;38460;53.106;7.004;2023-11-19T02:29:33;31.05;;;9.75;;
52564;SDS011;38460;53.106;7.004;2023-11-19T02:32:00;36.05;;;10.43;;
52564;SDS011;38460;53.106;7.004;2023-11-19T02:34:28;34.38;;;9.75;;
52564;SDS011;38460;53.106;7.004;2023-11-19T02:36:54;36.45;;;9.68;;
52564;SDS011;38460;53.106;7.004;2023-11-19T02:39:20;34.58;;;10.25;;
52564;SDS011;38460;53.106;7.004;2023-11-19T02:41:47;29.30;;;9.15;;
52564;SDS011;38460;53.106;7.004;2023-11-19T02:44:16;37.03;;;9.23;;
52564;SDS011;38460;53.106;7.004;2023-11-19T02:46:42;26.13;;;8.32;;
52564;SDS011;38460;53.106;7.004;2023-11-19T02:49:07;29.00;;;8.80;;
52564;SDS011;38460;53.106;7.004;2023-11-19T02:51:33;39.25;;;9.15;;
52564;SDS011;38460;53.106;7.004;2023-11-19T02:54:00;24.50;;;8.55;;
52564;SDS011;38460;53.106;7.004;2023-11-19T02:56:28;34.42;;;8.60;;
52564;SDS011;38460;53.106;7.004;2023-11-19T02:58:59;25.67;;;8.27;;
52564;SDS011;38460;53.106;7.004;2023-11-19T03:01:32;32.33;;;9.35;;
52564;SDS011;38460;53.106;7.004;2023-11-19T03:03:59;27.45;;;8.60;;
52564;SDS011;38460;53.106;7.004;2023-11-19T03:06:26;28.95;;;7.95;;
52564;SDS011;38460;53.106;7.004;2023-11-19T03:08:54;28.85;;;7.65;;
52564;SDS011;38460;53.106;7.004;2023-11-19T03:11:20;30.00;;;7.65;;
52564;SDS011;38460;53.106;7.004;2023-11-19T03:13:46;30.85;;;8.63;;
52564;SDS011;38460;53.106;7.004;2023-11-19T03:16:12;25.70;;;7.07;;
52564;SDS011;38460;53.106;7.004;2023-11-19T03:18:38;23.00;;;7.53;;
52564;SDS011;38460;53.106;7.004;2023-11-19T03:21:05;28.90;;;7.68;;
52564;SDS011;38460;53.106;7.004;2023-11-19T03:23:33;31.52;;;7.15;;
52564;SDS011;38460;53.106;7.004;2023-11-19T03:25:59;31.88;;;7.70;;
52564;SDS011;38460;53.106;7.004;2023-11-19T03:28:28;27.73;;;7.20;;
52564;SDS011;38460;53.106;7.004;2023-11-19T03:30:54;27.50;;;7.32;;
52564;SDS011;38460;53.106;7.004;2023-11-19T03:33:20;24.65;;;8.25;;
52564;SDS011;38460;53.106;7.004;2023-11-19T03:35:46;26.67;;;6.88;;
52564;SDS011;38460;53.106;7.004;2023-11-19T03:38:11;24.05;;;6.65;;
52564;SDS011;38460;53.106;7.004;2023-11-19T03:40:38;26.48;;;6.45;;
52564;SDS011;38460;53.106;7.004;2023-11-19T03:43:04;18.27;;;7.50;;
52564;SDS011;38460;53.106;7.004;2023-11-19T03:45:30;28.23;;;7.93;;
52564;SDS011;38460;53.106;7.004;2023-11-19T03:47:56;22.95;;;7.38;;
52564;SDS011;38460;53.106;7.004;2023-11-19T03:50:21;22.65;;;7.22;;
52564;SDS011;38460;53.106;7.004;2023-11-19T03:52:48;18.15;;;5.55;;
52564;SDS011;38460;53.106;7.004;2023-11-19T03:55:14;23.83;;;6.45;;
52564;SDS011;38460;53.106;7.004;2023-11-19T03:57:40;27.83;;;8.15;;
52564;SDS011;38460;53.106;7.004;2023-11-19T04:00:06;19.70;;;6.90;;
52564;SDS011;38460;53.106;7.004;2023-11-19T04:02:35;24.33;;;6.65;;
52564;SDS011;38460;53.106;7.004;2023-11-19T04:05:01;27.92;;;6.38;;
52564;SDS011;38460;53.106;7.004;2023-11-19T04:07:29;32.83;;;8.50;;
52564;SDS011;38460;53.106;7.004;2023-11-19T04:09:54;28.63;;;6.55;;
52564;SDS011;38460;53.106;7.004;2023-11-19T04:12:20;24.38;;;7.32;;
52564;SDS011;38460;53.106;7.004;2023-11-19T04:14:47;36.47;;;8.52;;
52564;SDS011;38460;53.106;7.004;2023-11-19T04:17:12;21.95;;;7.05;;
52564;SDS011;38460;53.106;7.004;2023-11-19T04:19:39;25.15;;;7.15;;
52564;SDS011;38460;53.106;7.004;2023-11-19T04:22:09;26.70;;;7.55;;
52564;SDS011;38460;53.106;7.004;2023-11-19T04:24:36;30.33;;;6.75;;
52564;SDS011;38460;53.106;7.004;2023-11-19T04:27:01;32.22;;;9.02;;
52564;SDS011;38460;53.106;7.004;2023-11-19T04:29:29;28.10;;;6.80;;
52564;SDS011;38460;53.106;7.004;2023-11-19T04:31:56;20.33;;;6.40;;
52564;SDS011;38460;53.106;7.004;2023-11-19T04:34:21;30.33;;;7.70;;
52564;SDS011;38460;53.106;7.004;2023-11-19T04:36:47;29.98;;;7.03;;
52564;SDS011;38460;53.106;7.004;2023-11-19T04:39:14;33.75;;;7.82;;
52564;SDS011;38460;53.106;7.004;2023-11-19T04:41:50;33.88;;;8.98;;
52564;SDS011;38460;53.106;7.004;2023-11-19T04:44:18;26.92;;;6.90;;
52564;SDS011;38460;53.106;7.004;2023-11-19T04:46:44;25.33;;;7.10;;
52564;SDS011;38460;53.106;7.004;2023-11-19T04:49:11;24.98;;;6.43;;
52564;SDS011;38460;53.106;7.004;2023-11-19T04:51:38;30.20;;;8.00;;
52564;SDS011;38460;53.106;7.004;2023-11-19T04:54:04;23.13;;;7.40;;
52564;SDS011;38460;53.106;7.004;2023-11-19T04:56:30;32.22;;;7.45;;
52564;SDS011;38460;53.106;7.004;2023-11-19T04:58:56;26.85;;;7.35;;
52564;SDS011;38460;53.106;7.004;2023-11-19T05:01:22;27.00;;;6.60;;
52564;SDS011;38460;53.106;7.004;2023-11-19T05:03:47;33.28;;;8.00;;
52564;SDS011;38460;53.106;7.004;2023-11-19T05:06:13;25.40;;;7.10;;
52564;SDS011;38460;53.106;7.004;2023-11-19T05:08:40;31.65;;;6.97;;
52564;SDS011;38460;53.106;7.004;2023-11-19T05:11:06;28.58;;;8.52;;
52564;SDS011;38460;53.106;7.004;2023-11-19T05:13:31;25.55;;;7.20;;
52564;SDS011;38460;53.106;7.004;2023-11-19T05:15:57;36.20;;;8.45;;
52564;SDS011;38460;53.106;7.004;2023-11-19T05:18:23;26.83;;;7.63;;
52564;SDS011;38460;53.106;7.004;2023-11-19T05:20:48;29.33;;;8.75;;
52564;SDS011;38460;53.106;7.004;2023-11-19T05:23:14;23.48;;;6.97;;
52564;SDS011;38460;53.106;7.004;2023-11-19T05:25:40;29.23;;;7.63;;
52564;SDS011;38460;53.106;7.004;2023-11-19T05:28:05;31.20;;;6.85;;
52564;SDS011;38460;53.106;7.004;2023-11-19T05:30:31;25.77;;;6.80;;
52564;SDS011;38460;53.106;7.004;2023-11-19T05:32:57;22.40;;;7.63;;
52564;SDS011;38460;53.106;7.004;2023-11-19T05:35:22;37.17;;;8.60;;
52564;SDS011;38460;53.106;7.004;2023-11-19T05:37:48;32.97;;;7.78;;
52564;SDS011;38460;53.106;7.004;2023-11-19T05:40:15;29.40;;;6.70;;
52564;SDS011;38460;53.106;7.004;2023-11-19T05:42:41;26.08;;;7.55;;
52564;SDS011;38460;53.106;7.004;2023-11-19T05:45:07;27.63;;;6.82;;
52564;SDS011;38460;53.106;7.004;2023-11-19T05:47:34;34.88;;;8.60;;
52564;SDS011;38460;53.106;7.004;2023-11-19T05:49:59;46.22;;;8.18;;
52564;SDS011;38460;53.106;7.004;2023-11-19T05:52:25;33.42;;;7.95;;
52564;SDS011;38460;53.106;7.004;2023-11-19T05:54:50;27.30;;;7.00;;
52564;SDS011;38460;53.106;7.004;2023-11-19T05:57:17;33.45;;;7.53;;
52564;SDS011;38460;53.106;7.004;2023-11-19T05:59:49;31.30;;;7.60;;
52564;SDS011;38460;53.106;7.004;2023-11-19T06:02:15;34.15;;;8.32;;
52564;SDS011;38460;53.106;7.004;2023-11-19T06:04:41;43.00;;;9.95;;
52564;SDS011;38460;53.106;7.004;2023-11-19T06:07:09;25.65;;;7.25;;
52564;SDS011;38460;53.106;7.004;2023-11-19T06:09:35;24.67;;;7.40;;
52564;SDS011;38460;53.106;7.004;2023-11-19T06:12:00;29.23;;;7.90;;
52564;SDS011;38460;53.106;7.004;2023-11-19T06:14:31;36.22;;;8.60;;
52564;SDS011;38460;53.106;7.004;2023-11-19T06:16:57;29.02;;;8.73;;
52564;SDS011;38460;53.106;7.004;2023-11-19T06:19:22;24.83;;;6.93;;
52564;SDS011;38460;53.106;7.004;2023-11-19T06:21:50;27.13;;;7.30;;
52564;SDS011;38460;53.106;7.004;2023-11-19T06:24:15;24.70;;;7.50;;
52564;SDS011;38460;53.106;7.004;2023-11-19T06:26:41;33.95;;;8.85;;
52564;SDS011;38460;53.106;7.004;2023-11-19T06:29:07;21.77;;;7.05;;
52564;SDS011;38460;53.106;7.004;2023-11-19T06:31:33;31.50;;;7.72;;
52564;SDS011;38460;53.106;7.004;2023-11-19T06:33:58;37.15;;;9.13;;
52564;SDS011;38460;53.106;7.004;2023-11-19T06:36:24;30.85;;;7.22;;
52564;SDS011;38460;53.106;7.004;2023-11-19T06:38:50;40.90;;;8.80;;
52564;SDS011;38460;53.106;7.004;2023-11-19T06:41:16;29.60;;;7.18;;
52564;SDS011;38460;53.106;7.004;2023-11-19T06:43:41;35.33;;;9.57;;
52564;SDS011;38460;53.106;7.004;2023-11-19T06:46:15;31.63;;;7.20;;
52564;SDS011;38460;53.106;7.004;2023-11-19T06:48:41;31.67;;;8.15;;
52564;SDS011;38460;53.106;7.004;2023-11-19T06:51:09;28.27;;;7.05;;
52564;SDS011;38460;53.106;7.004;2023-11-19T06:53:35;23.33;;;8.18;;
52564;SDS011;38460;53.106;7.004;2023-11-19T06:56:01;31.95;;;7.28;;
52564;SDS011;38460;53.106;7.004;2023-11-19T06:58:31;28.30;;;7.45;;
52564;SDS011;38460;53.106;7.004;2023-11-19T07:01:00;37.22;;;9.23;;
52564;SDS011;38460;53.106;7.004;2023-11-19T07:03:26;32.13;;;8.93;;
52564;SDS011;38460;53.106;7.004;2023-11-19T07:05:52;29.23;;;8.00;;
52564;SDS011;38460;53.106;7.004;2023-11-19T07:08:17;28.25;;;8.45;;
52564;SDS011;38460;53.106;7.004;2023-11-19T07:10:43;29.58;;;7.70;;
52564;SDS011;38460;53.106;7.004;2023-11-19T07:13:09;30.23;;;7.15;;
52564;SDS011;38460;53.106;7.004;2023-11-19T07:15:35;34.58;;;8.13;;
52564;SDS011;38460;53.106;7.004;2023-11-19T07:18:00;30.02;;;6.60;;
52564;SDS011;38460;53.106;7.004;2023-11-19T07:20:26;34.00;;;7.78;;
52564;SDS011;38460;53.106;7.004;2023-11-19T07:22:53;22.25;;;6.82;;
52564;SDS011;38460;53.106;7.004;2023-11-19T07:25:20;31.40;;;7.20;;
52564;SDS011;38460;53.106;7.004;2023-11-19T07:27:45;28.08;;;7.70;;
52564;SDS011;38460;53.106;7.004;2023-11-19T07:30:13;27.15;;;6.93;;
52564;SDS011;38460;53.106;7.004;2023-11-19T07:32:39;29.00;;;7.20;;
52564;SDS011;38460;53.106;7.004;2023-11-19T07:35:04;28.67;;;8.63;;
52564;SDS011;38460;53.106;7.004;2023-11-19T07:37:30;32.05;;;8.85;;
52564;SDS011;38460;53.106;7.004;2023-11-19T07:39:56;22.15;;;7.05;;
52564;SDS011;38460;53.106;7.004;2023-11-19T07:42:22;31.95;;;6.60;;
52564;SDS011;38460;53.106;7.004;2023-11-19T07:44:49;31.65;;;7.97;;
52564;SDS011;38460;53.106;7.004;2023-11-19T07:47:14;27.10;;;7.72;;
52564;SDS011;38460;53.106;7.004;2023-11-19T07:49:40;27.30;;;7.03;;
52564;SDS011;38460;53.106;7.004;2023-11-19T07:52:06;28.30;;;7.43;;
52564;SDS011;38460;53.106;7.004;2023-11-19T07:54:32;26.50;;;7.18;;
52564;SDS011;38460;53.106;7.004;2023-11-19T07:56:57;32.45;;;8.52;;
52564;SDS011;38460;53.106;7.004;2023-11-19T07:59:23;23.35;;;6.88;;
52564;SDS011;38460;53.106;7.004;2023-11-19T08:01:49;31.52;;;8.63;;
52564;SDS011;38460;53.106;7.004;2023-11-19T08:04:15;26.02;;;7.72;;
52564;SDS011;38460;53.106;7.004;2023-11-19T08:06:40;24.98;;;7.65;;
52564;SDS011;38460;53.106;7.004;2023-11-19T08:09:06;31.70;;;7.93;;
52564;SDS011;38460;53.106;7.004;2023-11-19T08:11:36;33.72;;;7.60;;
52564;SDS011;38460;53.106;7.004;2023-11-19T08:14:10;32.35;;;7.88;;
52564;SDS011;38460;53.106;7.004;2023-11-19T08:16:36;28.05;;;7.78;;
52564;SDS011;38460;53.106;7.004;2023-11-19T08:19:04;27.02;;;7.25;;
52564;SDS011;38460;53.106;7.004;2023-11-19T08:21:30;25.60;;;6.72;;
52564;SDS011;38460;53.106;7.004;2023-11-19T08:23:56;31.33;;;7.40;;
52564;SDS011;38460;53.106;7.004;2023-11-19T08:26:22;26.27;;;6.35;;
52564;SDS011;38460;53.106;7.004;2023-11-19T08:28:47;34.58;;;8.75;;
52564;SDS011;38460;53.106;7.004;2023-11-19T08:31:13;29.33;;;8.65;;
52564;SDS011;38460;53.106;7.004;2023-11-19T08:33:39;27.58;;;6.85;;
52564;SDS011;38460;53.106;7.004;2023-11-19T08:36:04;35.53;;;8.52;;
52564;SDS011;38460;53.106;7.004;2023-11-19T08:38:31;32.92;;;8.40;;
52564;SDS011;38460;53.106;7.004;2023-11-19T08:40:57;29.25;;;7.50;;
52564;SDS011;38460;53.106;7.004;2023-11-19T08:43:26;31.13;;;8.65;;
52564;SDS011;38460;53.106;7.004;2023-11-19T08:45:52;35.13;;;8.40;;
52564;SDS011;38460;53.106;7.004;2023-11-19T08:48:18;27.23;;;7.85;;
52564;SDS011;38460;53.106;7.004;2023-11-19T08:50:43;25.65;;;6.75;;
52564;SDS011;38460;53.106;7.004;2023-11-19T08:53:09;27.08;;;6.70;;
52564;SDS011;38460;53.106;7.004;2023-11-19T08:55:36;24.58;;;6.93;;
52564;SDS011;38460;53.106;7.004;2023-11-19T08:58:02;25.77;;;6.85;;
52564;SDS011;38460;53.106;7.004;2023-11-19T09:00:27;27.25;;;7.28;;
52564;SDS011;38460;53.106;7.004;2023-11-19T09:02:53;21.33;;;7.05;;
52564;SDS011;38460;53.106;7.004;2023-11-19T09:05:19;45.10;;;7.35;;
52564;SDS011;38460;53.106;7.004;2023-11-19T09:07:44;29.00;;;7.15;;
52564;SDS011;38460;53.106;7.004;2023-11-19T09:10:10;30.35;;;7.95;;
52564;SDS011;38460;53.106;7.004;2023-11-19T09:12:36;35.25;;;9.20;;
52564;SDS011;38460;53.106;7.004;2023-11-19T09:15:02;30.48;;;8.63;;
52564;SDS011;38460;53.106;7.004;2023-11-19T09:17:28;31.52;;;6.82;;
52564;SDS011;38460;53.106;7.004;2023-11-19T09:19:54;26.45;;;7.60;;
52564;SDS011;38460;53.106;7.004;2023-11-19T09:22:20;32.10;;;8.02;;
52564;SDS011;38460;53.106;7.004;2023-11-19T09:24:46;32.92;;;8.82;;
52564;SDS011;38460;53.106;7.004;2023-11-19T09:27:13;25.85;;;6.40;;
52564;SDS011;38460;53.106;7.004;2023-11-19T09:29:38;26.65;;;7.28;;
52564;SDS011;38460;53.106;7.004;2023-11-19T09:32:04;28.00;;;7.82;;
52564;SDS011;38460;53.106;7.004;2023-11-19T09:34:31;26.60;;;7.05;;
52564;SDS011;38460;53.106;7.004;2023-11-19T09:36:57;28.50;;;7.68;;
52564;SDS011;38460;53.106;7.004;2023-11-19T09:39:23;30.23;;;7.95;;
52564;SDS011;38460;53.106;7.004;2023-11-19T09:41:50;34.47;;;8.27;;
52564;SDS011;38460;53.106;7.004;2023-11-19T09:44:16;23.85;;;7.40;;
52564;SDS011;38460;53.106;7.004;2023-11-19T09:46:44;33.03;;;7.47;;
52564;SDS011;38460;53.106;7.004;2023-11-19T09:49:10;33.42;;;7.75;;
52564;SDS011;38460;53.106;7.004;2023-11-19T09:51:38;27.13;;;7.50;;
52564;SDS011;38460;53.106;7.004;2023-11-19T09:54:04;23.60;;;7.07;;
52564;SDS011;38460;53.106;7.004;2023-11-19T09:56:30;36.25;;;9.65;;
52564;SDS011;38460;53.106;7.004;2023-11-19T09:58:57;26.50;;;8.23;;
52564;SDS011;38460;53.106;7.004;2023-11-19T10:01:24;26.52;;;6.15;;
52564;SDS011;38460;53.106;7.004;2023-11-19T10:03:50;28.25;;;7.00;;
52564;SDS011;38460;53.106;7.004;2023-11-19T10:06:20;34.05;;;8.38;;
52564;SDS011;38460;53.106;7.004;2023-11-19T10:08:45;33.53;;;8.68;;
52564;SDS011;38460;53.106;7.004;2023-11-19T10:11:11;23.10;;;6.80;;
52564;SDS011;38460;53.106;7.004;2023-11-19T10:13:38;24.70;;;6.97;;
52564;SDS011;38460;53.106;7.004;2023-11-19T10:16:07;26.45;;;6.85;;
52564;SDS011;38460;53.106;7.004;2023-11-19T10:18:34;24.77;;;6.35;;
52564;SDS011;38460;53.106;7.004;2023-11-19T10:21:04;27.13;;;6.97;;
52564;SDS011;38460;53.106;7.004;2023-11-19T10:23:31;27.58;;;8.60;;
52564;SDS011;38460;53.106;7.004;2023-11-19T10:26:12;27.77;;;7.05;;
52564;SDS011;38460;53.106;7.004;2023-11-19T10:28:40;29.65;;;7.63;;
52564;SDS011;38460;53.106;7.004;2023-11-19T10:31:11;27.85;;;6.60;;
52564;SDS011;38460;53.106;7.004;2023-11-19T10:33:38;29.63;;;6.95;;
52564;SDS011;38460;53.106;7.004;2023-11-19T10:36:04;28.38;;;6.55;;
52564;SDS011;38460;53.106;7.004;2023-11-19T10:38:30;31.27;;;8.43;;
52564;SDS011;38460;53.106;7.004;2023-11-19T10:40:55;26.30;;;7.18;;
52564;SDS011;38460;53.106;7.004;2023-11-19T10:43:22;36.17;;;7.85;;
52564;SDS011;38460;53.106;7.004;2023-11-19T10:45:48;23.73;;;6.40;;
52564;SDS011;38460;53.106;7.004;2023-11-19T10:48:14;29.15;;;7.32;;
52564;SDS011;38460;53.106;7.004;2023-11-19T10:50:41;36.00;;;7.93;;
52564;SDS011;38460;53.106;7.004;2023-11-19T10:53:09;25.00;;;6.68;;
52564;SDS011;38460;53.106;7.004;2023-11-19T10:55:38;25.98;;;6.88;;
52564;SDS011;38460;53.106;7.004;2023-11-19T10:58:05;25.92;;;8.60;;
52564;SDS011;38460;53.106;7.004;2023-11-19T11:00:40;27.30;;;7.43;;
52564;SDS011;38460;53.106;7.004;2023-11-19T11:03:11;34.67;;;6.72;;
52564;SDS011;38460;53.106;7.004;2023-11-19T11:05:39;27.52;;;7.65;;
52564;SDS011;38460;53.106;7.004;2023-11-19T11:08:07;32.80;;;7.25;;
52564;SDS011;38460;53.106;7.004;2023-11-19T11:10:35;28.20;;;7.38;;
52564;SDS011;38460;53.106;7.004;2023-11-19T11:13:07;26.55;;;7.25;;
52564;SDS011;38460;53.106;7.004;2023-11-19T11:15:33;23.98;;;6.05;;
52564;SDS011;38460;53.106;7.004;2023-11-19T11:18:01;31.33;;;7.38;;
52564;SDS011;38460;53.106;7.004;2023-11-19T11:20:30;31.67;;;6.05;;
52564;SDS011;38460;53.106;7.004;2023-11-19T11:23:14;25.63;;;6.20;;
52564;SDS011;38460;53.106;7.004;2023-11-19T11:25:59;29.35;;;7.05;;
52564;SDS011;38460;53.106;7.004;2023-11-19T11:40:01;24.08;;;6.25;;
52564;SDS011;38460;53.106;7.004;2023-11-19T11:42:38;20.92;;;6.32;;
52564;SDS011;38460;53.106;7.004;2023-11-19T11:45:08;22.48;;;5.63;;
52564;SDS011;38460;53.106;7.004;2023-11-19T11:50:29;28.83;;;6.83;;
52564;SDS011;38460;53.106;7.004;2023-11-19T11:55:51;29.85;;;7.13;;
52564;SDS011;38460;53.106;7.004;2023-11-19T11:58:27;21.38;;;6.15;;
52564;SDS011;38460;53.106;7.004;2023-11-19T12:00:57;27.73;;;6.47;;
52564;SDS011;38460;53.106;7.004;2023-11-19T12:03:23;20.35;;;5.82;;
52564;SDS011;38460;53.106;7.004;2023-11-19T12:05:51;24.05;;;6.80;;
52564;SDS011;38460;53.106;7.004;2023-11-19T12:08:18;26.75;;;6.38;;
52564;SDS011;38460;53.106;7.004;2023-11-19T12:10:54;27.27;;;7.13;;
52564;SDS011;38460;53.106;7.004;2023-11-19T12:13:24;25.55;;;6.68;;
52564;SDS011;38460;53.106;7.004;2023-11-19T12:18:23;20.33;;;6.65;;
52564;SDS011;38460;53.106;7.004;2023-11-19T12:20:49;27.55;;;6.57;;
52564;SDS011;38460;53.106;7.004;2023-11-19T12:23:15;22.63;;;7.05;;
52564;SDS011;38460;53.106;7.004;2023-11-19T12:25:41;19.95;;;6.03;;
52564;SDS011;38460;53.106;7.004;2023-11-19T12:28:11;23.90;;;6.43;;
52564;SDS011;38460;53.106;7.004;2023-11-19T12:30:38;28.95;;;6.43;;
52564;SDS011;38460;53.106;7.004;2023-11-19T12:33:10;25.90;;;6.75;;
52564;SDS011;38460;53.106;7.004;2023-11-19T12:35:40;25.35;;;6.68;;
52564;SDS011;38460;53.106;7.004;2023-11-19T12:38:23;30.52;;;7.10;;
52564;SDS011;38460;53.106;7.004;2023-11-19T12:41:05;21.92;;;6.63;;
52564;SDS011;38460;53.106;7.004;2023-11-19T12:43:32;26.73;;;7.20;;
52564;SDS011;38460;53.106;7.004;2023-11-19T12:46:02;22.85;;;8.13;;
52564;SDS011;38460;53.106;7.004;2023-11-19T12:48:41;27.60;;;7.43;;
52564;SDS011;38460;53.106;7.004;2023-11-19T12:51:07;27.45;;;6.63;;
52564;SDS011;38460;53.106;7.004;2023-11-19T12:53:46;28.58;;;7.40;;
52564;SDS011;38460;53.106;7.004;2023-11-19T12:56:19;36.53;;;9.80;;
52564;SDS011;38460;53.106;7.004;2023-11-19T12:58:46;28.75;;;8.23;;
52564;SDS011;38460;53.106;7.004;2023-11-19T13:01:15;28.58;;;8.13;;
52564;SDS011;38460;53.106;7.004;2023-11-19T13:03:42;31.17;;;6.97;;
52564;SDS011;38460;53.106;7.004;2023-11-19T13:06:09;25.13;;;7.13;;
52564;SDS011;38460;53.106;7.004;2023-11-19T13:08:37;30.48;;;6.90;;
52564;SDS011;38460;53.106;7.004;2023-11-19T13:11:04;25.38;;;6.05;;
52564;SDS011;38460;53.106;7.004;2023-11-19T13:13:31;24.27;;;6.95;;
52564;SDS011;38460;53.106;7.004;2023-11-19T13:16:03;25.40;;;7.35;;
52564;SDS011;38460;53.106;7.004;2023-11-19T13:18:34;21.10;;;6.28;;
52564;SDS011;38460;53.106;7.004;2023-11-19T13:21:00;29.20;;;7.72;;
52564;SDS011;38460;53.106;7.004;2023-11-19T13:23:25;30.40;;;6.13;;
52564;SDS011;38460;53.106;7.004;2023-11-19T13:25:51;29.33;;;6.97;;
52564;SDS011;38460;53.106;7.004;2023-11-19T13:28:17;26.15;;;7.18;;
52564;SDS011;38460;53.106;7.004;2023-11-19T13:30:43;30.75;;;7.75;;
52564;SDS011;38460;53.106;7.004;2023-11-19T13:33:08;28.65;;;6.25;;
52564;SDS011;38460;53.106;7.004;2023-11-19T13:35:37;31.23;;;6.95;;
52564;SDS011;38460;53.106;7.004;2023-11-19T13:38:05;33.50;;;8.32;;
52564;SDS011;38460;53.106;7.004;2023-11-19T13:40:33;23.92;;;6.72;;
52564;SDS011;38460;53.106;7.004;2023-11-19T13:42:59;24.20;;;6.50;;
52564;SDS011;38460;53.106;7.004;2023-11-19T13:45:25;26.40;;;5.72;;
52564;SDS011;38460;53.106;7.004;2023-11-19T13:47:51;19.55;;;5.80;;
52564;SDS011;38460;53.106;7.004;2023-11-19T13:50:17;19.13;;;6.00;;
52564;SDS011;38460;53.106;7.004;2023-11-19T13:52:44;22.88;;;6.47;;
52564;SDS011;38460;53.106;7.004;2023-11-19T13:55:11;21.83;;;5.32;;
52564;SDS011;38460;53.106;7.004;2023-11-19T13:57:38;25.33;;;5.80;;
52564;SDS011;38460;53.106;7.004;2023-11-19T14:00:05;24.08;;;6.03;;
52564;SDS011;38460;53.106;7.004;2023-11-19T14:02:36;23.00;;;6.40;;
52564;SDS011;38460;53.106;7.004;2023-11-19T14:05:02;27.15;;;8.07;;
52564;SDS011;38460;53.106;7.004;2023-11-19T14:07:28;33.25;;;6.70;;
52564;SDS011;38460;53.106;7.004;2023-11-19T14:09:54;27.17;;;6.35;;
52564;SDS011;38460;53.106;7.004;2023-11-19T14:12:20;27.50;;;5.50;;
52564;SDS011;38460;53.106;7.004;2023-11-19T14:14:45;19.52;;;6.43;;
52564;SDS011;38460;53.106;7.004;2023-11-19T14:17:11;22.40;;;6.18;;
52564;SDS011;38460;53.106;7.004;2023-11-19T14:19:37;28.27;;;6.82;;
52564;SDS011;38460;53.106;7.004;2023-11-19T14:22:04;23.27;;;5.85;;
52564;SDS011;38460;53.106;7.004;2023-11-19T14:24:30;23.73;;;6.68;;
52564;SDS011;38460;53.106;7.004;2023-11-19T14:26:56;21.38;;;6.03;;
52564;SDS011;38460;53.106;7.004;2023-11-19T14:29:24;26.90;;;6.75;;
52564;SDS011;38460;53.106;7.004;2023-11-19T14:31:51;25.33;;;5.95;;
52564;SDS011;38460;53.106;7.004;2023-11-19T14:34:19;20.92;;;6.80;;
52564;SDS011;38460;53.106;7.004;2023-11-19T14:36:45;22.15;;;6.90;;
52564;SDS011;38460;53.106;7.004;2023-11-19T14:39:11;21.95;;;5.88;;
52564;SDS011;38460;53.106;7.004;2023-11-19T14:41:37;25.17;;;6.55;;
52564;SDS011;38460;53.106;7.004;2023-11-19T14:44:02;20.65;;;5.78;;
52564;SDS011;38460;53.106;7.004;2023-11-19T14:46:28;28.33;;;6.32;;
52564;SDS011;38460;53.106;7.004;2023-11-19T14:48:54;22.13;;;6.15;;
52564;SDS011;38460;53.106;7.004;2023-11-19T14:51:20;28.65;;;6.85;;
52564;SDS011;38460;53.106;7.004;2023-11-19T14:53:46;27.48;;;6.07;;